createdAt,value
2019-03-28T00:00:24.678Z,7.65
2019-03-28T00:02:53.042Z,2.73
2019-03-28T00:05:21.440Z,13.80
2019-03-28T00:07:49.808Z,5.10
2019-03-28T00:10:18.420Z,4.70
2019-03-28T00:12:46.729Z,4.00
2019-03-28T00:15:15.093Z,7.55
2019-03-28T00:17:43.402Z,5.95
2019-03-28T00:20:11.682Z,4.15
2019-03-28T00:22:42.109Z,2.95
2019-03-28T00:25:13.002Z,2.00
2019-03-28T00:27:41.431Z,3.50
2019-03-28T00:30:09.801Z,3.75
2019-03-28T00:32:38.260Z,4.05
2019-03-28T00:35:07.006Z,4.12
2019-03-28T00:37:35.506Z,3.50
2019-03-28T00:40:05.913Z,3.85
2019-03-28T00:42:35.094Z,5.78
2019-03-28T00:45:04.127Z,6.80
2019-03-28T00:47:32.500Z,3.35
2019-03-28T00:50:00.882Z,3.83
2019-03-28T00:52:29.254Z,3.75
2019-03-28T00:54:57.977Z,3.47
2019-03-28T00:57:26.350Z,3.30
2019-03-28T00:59:54.879Z,6.80
2019-03-28T01:02:23.236Z,9.85
2019-03-28T01:04:52.089Z,6.90
2019-03-28T01:07:20.432Z,4.27
2019-03-28T01:09:48.779Z,4.28
2019-03-28T01:12:17.133Z,5.07
2019-03-28T01:14:45.659Z,3.70
2019-03-28T01:17:14.093Z,4.67
2019-03-28T01:19:42.459Z,3.92
2019-03-28T01:22:10.866Z,3.22
2019-03-28T01:24:39.261Z,6.37
2019-03-28T01:27:07.645Z,5.62
2019-03-28T01:29:35.961Z,3.57
2019-03-28T01:32:04.354Z,4.95
2019-03-28T01:34:33.233Z,4.34
2019-03-28T01:37:01.698Z,3.15
2019-03-28T01:39:30.067Z,5.20
2019-03-28T01:41:58.450Z,2.45
2019-03-28T01:44:26.812Z,4.00
2019-03-28T01:46:55.192Z,2.70
2019-03-28T01:49:24.372Z,2.37
2019-03-28T01:51:52.752Z,4.47
2019-03-28T01:54:21.142Z,4.87
2019-03-28T01:56:49.431Z,3.12
2019-03-28T01:59:17.798Z,3.47
2019-03-28T02:01:46.109Z,2.75
2019-03-28T02:04:14.417Z,5.67
2019-03-28T02:06:42.779Z,3.75
2019-03-28T02:09:11.225Z,3.90
2019-03-28T02:11:40.285Z,3.10
2019-03-28T02:14:09.245Z,2.14
2019-03-28T02:16:37.671Z,3.00
2019-03-28T02:19:06.054Z,2.10
2019-03-28T02:21:34.419Z,2.87
2019-03-28T02:24:02.805Z,1.80
2019-03-28T02:26:31.174Z,1.75
2019-03-28T02:28:59.573Z,2.12
2019-03-28T02:31:27.948Z,3.12
2019-03-28T02:33:56.306Z,5.53
2019-03-28T02:36:24.697Z,1.98
2019-03-28T02:38:53.072Z,2.30
2019-03-28T02:41:21.459Z,3.37
2019-03-28T02:43:49.824Z,3.08
2019-03-28T02:46:18.294Z,3.33
2019-03-28T02:48:46.709Z,3.37
2019-03-28T02:51:15.130Z,2.87
2019-03-28T02:53:44.154Z,1.66
2019-03-28T02:56:12.578Z,1.40
2019-03-28T02:58:40.945Z,3.10
2019-03-28T03:01:09.313Z,2.33
2019-03-28T03:03:37.831Z,2.37
2019-03-28T03:06:06.190Z,3.35
2019-03-28T03:08:34.570Z,3.65
2019-03-28T03:11:03.889Z,3.27
2019-03-28T03:13:32.281Z,1.27
2019-03-28T03:16:00.638Z,1.90
2019-03-28T03:18:29.002Z,3.12
2019-03-28T03:20:57.405Z,1.65
2019-03-28T03:23:25.782Z,3.47
2019-03-28T03:25:54.178Z,1.87
2019-03-28T03:28:22.549Z,2.37
2019-03-28T03:30:50.935Z,2.17
2019-03-28T03:33:19.329Z,4.00
2019-03-28T03:35:47.705Z,3.37
2019-03-28T03:38:16.065Z,1.60
2019-03-28T03:40:44.462Z,3.25
2019-03-28T03:43:12.894Z,2.12
2019-03-28T03:45:41.293Z,2.83
2019-03-28T03:48:09.655Z,1.42
2019-03-28T03:50:38.084Z,2.25
2019-03-28T03:53:07.503Z,1.85
2019-03-28T03:55:35.934Z,1.55
2019-03-28T03:58:15.276Z,1.55
2019-03-28T04:00:35.784Z,3.58
2019-03-28T04:03:04.217Z,4.43
2019-03-28T04:05:32.593Z,1.87
2019-03-28T04:08:00.903Z,1.80
2019-03-28T04:10:29.287Z,2.25
2019-03-28T04:12:57.725Z,2.55
2019-03-28T04:15:26.190Z,3.77
2019-03-28T04:17:54.531Z,2.58
2019-03-28T04:20:22.905Z,1.43
2019-03-28T04:22:51.292Z,2.25
2019-03-28T04:25:19.722Z,2.93
2019-03-28T04:27:48.106Z,3.47
2019-03-28T04:30:17.007Z,4.12
2019-03-28T04:32:46.724Z,1.47
2019-03-28T04:35:15.193Z,4.25
2019-03-28T04:37:43.580Z,3.85
2019-03-28T04:40:11.967Z,3.57
2019-03-28T04:42:40.346Z,1.60
2019-03-28T04:45:08.745Z,2.83
2019-03-28T04:47:37.130Z,2.60
2019-03-28T04:50:05.922Z,2.00
2019-03-28T04:52:35.146Z,2.76
2019-03-28T04:55:03.988Z,2.12
2019-03-28T04:57:32.317Z,2.83
2019-03-28T05:00:00.668Z,4.65
2019-03-28T05:02:29.385Z,3.30
2019-03-28T05:04:57.745Z,6.33
2019-03-28T05:07:26.063Z,3.90
2019-03-28T05:09:54.486Z,3.50
2019-03-28T05:12:22.878Z,4.62
2019-03-28T05:14:51.267Z,5.37
2019-03-28T05:17:19.659Z,4.00
2019-03-28T05:19:48.413Z,3.25
2019-03-28T05:22:16.909Z,4.65
2019-03-28T05:24:45.230Z,2.92
2019-03-28T05:27:16.484Z,2.40
2019-03-28T05:29:43.644Z,2.50
2019-03-28T05:32:12.129Z,4.37
2019-03-28T05:34:40.499Z,2.20
2019-03-28T05:37:08.931Z,4.25
2019-03-28T05:39:37.336Z,2.05
2019-03-28T05:42:05.706Z,1.45
2019-03-28T05:44:34.110Z,5.70
2019-03-28T05:47:03.417Z,14.30
2019-03-28T05:49:31.849Z,6.83
2019-03-28T05:52:00.242Z,4.67
2019-03-28T05:54:28.602Z,6.15
2019-03-28T05:56:56.990Z,3.27
2019-03-28T05:59:25.453Z,6.95
2019-03-28T06:01:53.816Z,5.10
2019-03-28T06:04:22.217Z,5.83
2019-03-28T06:06:50.605Z,5.97
2019-03-28T06:09:19.365Z,4.10
2019-03-28T06:11:47.902Z,4.60
2019-03-28T06:14:16.257Z,5.00
2019-03-28T06:16:44.548Z,8.03
2019-03-28T06:19:12.947Z,5.67
2019-03-28T06:21:41.238Z,9.75
2019-03-28T06:24:09.601Z,12.00
2019-03-28T06:26:37.999Z,4.90
2019-03-28T06:29:08.614Z,8.78
2019-03-28T06:31:36.508Z,7.40
2019-03-28T06:34:04.858Z,4.50
2019-03-28T06:36:33.240Z,7.85
2019-03-28T06:39:01.678Z,7.12
2019-03-28T06:41:30.070Z,5.33
2019-03-28T06:43:58.466Z,5.75
2019-03-28T06:46:26.834Z,3.92
2019-03-28T06:48:55.268Z,7.72
2019-03-28T06:51:23.974Z,4.85
2019-03-28T06:53:52.342Z,4.55
2019-03-28T06:56:20.780Z,2.65
2019-03-28T06:58:49.094Z,3.93
2019-03-28T07:01:17.380Z,3.72
2019-03-28T07:03:47.352Z,1.82
2019-03-28T07:06:15.866Z,2.65
2019-03-28T07:08:44.226Z,7.80
2019-03-28T07:11:12.593Z,4.03
2019-03-28T07:13:40.963Z,7.47
2019-03-28T07:16:09.321Z,7.33
2019-03-28T07:18:37.785Z,9.80
2019-03-28T07:21:06.143Z,3.77
2019-03-28T07:23:34.506Z,4.28
2019-03-28T07:26:02.894Z,6.45
2019-03-28T07:28:31.346Z,4.95
2019-03-28T07:30:59.711Z,4.58
2019-03-28T07:33:28.105Z,8.30
2019-03-28T07:35:56.498Z,6.78
2019-03-28T07:38:24.859Z,6.83
2019-03-28T07:40:53.533Z,5.62
2019-03-28T07:43:25.052Z,4.70
2019-03-28T07:45:53.318Z,4.83
2019-03-28T07:48:21.770Z,3.87
2019-03-28T07:50:50.220Z,7.92
2019-03-28T07:53:19.987Z,5.22
2019-03-28T07:55:49.120Z,6.28
2019-03-28T07:58:17.544Z,5.00
2019-03-28T08:00:45.976Z,4.83
2019-03-28T08:03:14.408Z,4.80
2019-03-28T08:05:42.788Z,4.15
2019-03-28T08:08:11.201Z,7.50
2019-03-28T08:10:40.063Z,6.18
2019-03-28T08:13:08.433Z,5.08
2019-03-28T08:15:56.289Z,2.92
2019-03-28T08:18:24.645Z,3.52
2019-03-28T08:20:53.040Z,5.20
2019-03-28T08:23:21.504Z,4.80
2019-03-28T08:25:49.873Z,4.50
2019-03-28T08:28:18.315Z,4.50
2019-03-28T08:30:46.864Z,2.83
2019-03-28T08:33:15.145Z,6.17
2019-03-28T08:35:43.525Z,3.45
2019-03-28T08:38:12.050Z,2.03
2019-03-28T08:40:41.650Z,3.30
2019-03-28T08:43:10.925Z,5.50
2019-03-28T08:45:39.830Z,1.40
2019-03-28T08:48:08.287Z,6.87
2019-03-28T08:50:36.646Z,3.45
2019-03-28T08:53:05.036Z,4.97
2019-03-28T08:55:33.420Z,5.00
2019-03-28T08:58:01.806Z,4.28
2019-03-28T09:00:35.229Z,7.33
2019-03-28T09:03:00.285Z,1.50
2019-03-28T09:05:29.107Z,4.46
2019-03-28T09:07:57.415Z,1.98
2019-03-28T09:10:25.735Z,5.08
2019-03-28T09:12:54.445Z,2.30
2019-03-28T09:15:22.815Z,3.15
2019-03-28T09:17:51.355Z,3.07
2019-03-28T09:20:19.779Z,2.12
2019-03-28T09:22:49.099Z,4.08
2019-03-28T09:25:17.461Z,1.70
2019-03-28T09:27:45.845Z,2.37
2019-03-28T09:30:16.044Z,2.60
2019-03-28T09:32:44.486Z,1.60
2019-03-28T09:35:16.162Z,2.40
2019-03-28T09:37:44.637Z,2.43
2019-03-28T09:40:13.023Z,3.95
2019-03-28T09:42:41.417Z,1.03
2019-03-28T09:45:09.982Z,2.50
2019-03-28T09:47:38.346Z,2.67
2019-03-28T09:50:07.021Z,1.27
2019-03-28T09:52:35.541Z,2.17
2019-03-28T09:55:05.726Z,2.25
2019-03-28T09:57:34.115Z,2.23
2019-03-28T10:00:02.559Z,3.05
2019-03-28T10:02:30.949Z,10.03
2019-03-28T10:04:59.325Z,3.35
2019-03-28T10:07:27.953Z,1.92
2019-03-28T10:09:56.713Z,2.02
2019-03-28T10:12:25.145Z,1.22
2019-03-28T10:14:53.531Z,1.80
2019-03-28T10:17:21.903Z,3.95
2019-03-28T10:19:50.329Z,2.77
2019-03-28T10:22:18.774Z,3.60
2019-03-28T10:24:47.116Z,1.72
2019-03-28T10:27:15.455Z,0.88
2019-03-28T10:29:43.850Z,2.25
2019-03-28T10:32:12.232Z,2.98
2019-03-28T10:34:40.555Z,2.05
2019-03-28T10:37:08.756Z,2.00
2019-03-28T10:39:36.957Z,2.25
2019-03-28T10:42:05.207Z,1.90
2019-03-28T10:44:33.432Z,5.20
2019-03-28T10:47:04.824Z,1.65
2019-03-28T10:49:32.183Z,1.92
2019-03-28T10:52:03.696Z,4.80
2019-03-28T10:54:30.157Z,0.88
2019-03-28T10:56:58.265Z,1.87
2019-03-28T10:59:26.408Z,1.10
2019-03-28T11:01:54.576Z,1.67
2019-03-28T11:04:22.854Z,3.47
2019-03-28T11:06:50.977Z,2.60
2019-03-28T11:09:20.429Z,4.50
2019-03-28T11:11:48.674Z,2.10
2019-03-28T11:14:16.928Z,4.78
2019-03-28T11:16:48.102Z,3.90
2019-03-28T11:19:15.945Z,3.22
2019-03-28T11:21:44.802Z,0.65
2019-03-28T11:24:13.014Z,7.87
2019-03-28T11:26:41.252Z,1.10
2019-03-28T11:29:09.428Z,2.40
2019-03-28T11:31:46.260Z,1.40
2019-03-28T11:34:07.478Z,1.00
2019-03-28T11:36:35.680Z,4.42
2019-03-28T11:39:05.454Z,2.75
2019-03-28T11:41:34.610Z,1.82
2019-03-28T11:44:02.905Z,2.17
2019-03-28T11:46:31.119Z,2.37
2019-03-28T11:49:00.261Z,2.30
2019-03-28T11:51:28.563Z,5.53
2019-03-28T11:53:56.781Z,0.50
2019-03-28T11:56:24.959Z,5.72
2019-03-28T11:58:53.069Z,4.08
2019-03-28T12:01:21.202Z,3.33
2019-03-28T12:03:49.401Z,2.27
2019-03-28T12:06:17.534Z,2.75
2019-03-28T12:08:45.765Z,2.47
2019-03-28T12:11:13.948Z,0.88
2019-03-28T12:13:45.135Z,3.40
2019-03-28T12:16:12.013Z,1.70
2019-03-28T12:18:40.208Z,2.15
2019-03-28T12:21:08.412Z,2.30
2019-03-28T12:23:36.615Z,2.98
2019-03-28T12:26:05.621Z,4.87
2019-03-28T12:28:33.823Z,0.82
2019-03-28T12:31:02.022Z,1.75
2019-03-28T12:33:30.224Z,5.25
2019-03-28T12:35:58.394Z,3.60
2019-03-28T12:38:26.513Z,1.55
2019-03-28T12:40:54.718Z,2.42
2019-03-28T12:43:22.903Z,2.47
2019-03-28T12:45:51.105Z,2.17
2019-03-28T12:48:19.291Z,38.38
2019-03-28T12:50:58.340Z,4.22
2019-03-28T12:53:17.415Z,4.20
2019-03-28T12:55:46.572Z,3.90
2019-03-28T12:58:14.801Z,5.55
2019-03-28T13:00:43.014Z,3.67
2019-03-28T13:03:11.138Z,3.37
2019-03-28T13:05:39.327Z,4.35
2019-03-28T13:08:07.480Z,2.93
2019-03-28T13:10:35.709Z,2.70
2019-03-28T13:13:04.124Z,2.10
2019-03-28T13:15:32.307Z,3.35
2019-03-28T13:18:00.486Z,1.50
2019-03-28T13:20:28.715Z,4.10
2019-03-28T13:22:56.915Z,7.45
2019-03-28T13:25:25.048Z,0.80
2019-03-28T13:27:53.291Z,2.50
2019-03-28T13:30:21.494Z,5.55
2019-03-28T13:32:49.677Z,2.95
2019-03-28T13:35:20.352Z,3.92
2019-03-28T13:37:48.607Z,1.77
2019-03-28T13:40:16.899Z,2.90
2019-03-28T13:42:45.011Z,3.33
2019-03-28T13:45:14.818Z,5.58
2019-03-28T13:47:43.953Z,6.78
2019-03-28T13:50:12.418Z,5.97
2019-03-28T13:52:40.569Z,3.70
2019-03-28T13:55:08.873Z,4.50
2019-03-28T13:57:37.023Z,2.62
2019-03-28T14:00:06.893Z,4.75
2019-03-28T14:02:36.741Z,0.68
2019-03-28T14:05:07.968Z,2.70
2019-03-28T14:07:38.004Z,3.33
2019-03-28T14:10:06.265Z,2.50
2019-03-28T14:12:34.418Z,2.10
2019-03-28T14:15:02.640Z,2.02
2019-03-28T14:17:30.790Z,1.98
2019-03-28T14:19:58.949Z,4.33
2019-03-28T14:22:27.106Z,4.17
2019-03-28T14:24:55.534Z,7.60
2019-03-28T14:27:24.771Z,4.62
2019-03-28T14:29:53.042Z,7.08
2019-03-28T14:32:21.706Z,2.28
2019-03-28T14:34:49.862Z,2.05
2019-03-28T14:37:18.031Z,2.42
2019-03-28T14:39:49.073Z,3.47
2019-03-28T14:42:15.971Z,3.17
2019-03-28T14:44:44.135Z,3.13
2019-03-28T14:47:12.269Z,2.40
2019-03-28T14:49:40.421Z,3.10
2019-03-28T14:52:08.535Z,7.33
2019-03-28T14:54:36.661Z,3.70
2019-03-28T14:57:05.038Z,2.27
2019-03-28T14:59:34.601Z,8.55
2019-03-28T15:02:03.241Z,2.05
2019-03-28T15:04:31.489Z,7.78
2019-03-28T15:06:59.714Z,10.18
2019-03-28T15:09:28.069Z,4.15
2019-03-28T15:11:56.234Z,3.80
2019-03-28T15:14:24.302Z,5.55
2019-03-28T15:16:52.452Z,4.62
2019-03-28T15:19:20.633Z,3.95
2019-03-28T15:21:48.850Z,3.52
2019-03-28T15:24:16.953Z,3.85
2019-03-28T15:26:45.200Z,2.65
2019-03-28T15:29:14.452Z,4.53
2019-03-28T15:31:42.592Z,1.45
2019-03-28T15:34:10.672Z,5.80
2019-03-28T15:36:41.787Z,4.67
2019-03-28T15:39:08.639Z,3.35
2019-03-28T15:41:36.811Z,1.85
2019-03-28T15:44:05.057Z,1.57
2019-03-28T15:46:33.233Z,4.35
2019-03-28T15:49:01.912Z,3.53
2019-03-28T15:51:30.253Z,3.37
2019-03-28T15:53:58.395Z,2.70
2019-03-28T15:56:26.761Z,4.67
2019-03-28T15:58:54.945Z,2.55
2019-03-28T16:01:23.053Z,2.40
2019-03-28T16:03:53.374Z,3.53
2019-03-28T16:06:22.760Z,1.98
2019-03-28T16:08:51.217Z,3.45
2019-03-28T16:11:19.570Z,3.90
2019-03-28T16:13:47.762Z,3.60
2019-03-28T16:16:15.870Z,2.72
2019-03-28T16:18:44.270Z,2.60
2019-03-28T16:21:12.648Z,4.80
2019-03-28T16:23:41.066Z,2.92
2019-03-28T16:26:09.459Z,3.40
2019-03-28T16:28:37.893Z,3.72
2019-03-28T16:31:06.271Z,2.67
2019-03-28T16:33:34.639Z,2.02
2019-03-28T16:36:03.017Z,4.05
2019-03-28T16:38:32.909Z,2.80
2019-03-28T16:41:01.682Z,3.15
2019-03-28T16:43:30.047Z,4.35
2019-03-28T16:45:58.521Z,4.47
2019-03-28T16:48:27.339Z,4.70
2019-03-28T16:50:55.766Z,3.00
2019-03-28T16:53:24.702Z,5.53
2019-03-28T16:55:54.535Z,2.40
2019-03-28T16:58:23.789Z,7.12
2019-03-28T17:00:52.358Z,4.47
2019-03-28T17:03:21.216Z,6.28
2019-03-28T17:05:49.726Z,6.20
2019-03-28T17:08:19.008Z,6.58
2019-03-28T17:10:49.158Z,4.70
2019-03-28T17:13:18.704Z,4.62
2019-03-28T17:15:47.042Z,4.03
2019-03-28T17:18:18.420Z,4.30
2019-03-28T17:20:45.559Z,4.37
2019-03-28T17:23:13.982Z,5.73
2019-03-28T17:25:42.371Z,3.12
2019-03-28T17:28:10.745Z,6.78
2019-03-28T17:30:39.341Z,4.80
2019-03-28T17:33:07.773Z,3.40
2019-03-28T17:35:36.401Z,6.43
2019-03-28T17:38:04.729Z,5.72
2019-03-28T17:40:36.518Z,5.65
2019-03-28T17:43:03.370Z,8.45
2019-03-28T17:45:31.750Z,3.40
2019-03-28T17:48:00.321Z,6.17
2019-03-28T17:50:29.090Z,2.62
2019-03-28T17:52:57.586Z,4.53
2019-03-28T17:55:26.002Z,6.80
2019-03-28T17:57:54.523Z,6.90
2019-03-28T18:00:23.285Z,9.00
2019-03-28T18:02:52.733Z,7.03
2019-03-28T18:05:27.138Z,6.85
2019-03-28T18:07:55.957Z,7.97
2019-03-28T18:10:25.654Z,9.13
2019-03-28T18:12:54.096Z,6.84
2019-03-28T18:15:22.494Z,9.53
2019-03-28T18:17:51.016Z,14.38
2019-03-28T18:20:19.967Z,8.85
2019-03-28T18:22:48.361Z,8.18
2019-03-28T18:25:16.793Z,7.20
2019-03-28T18:27:45.377Z,6.08
2019-03-28T18:30:13.773Z,7.50
2019-03-28T18:32:42.242Z,9.80
2019-03-28T18:35:11.171Z,7.50
2019-03-28T18:37:39.629Z,9.45
2019-03-28T18:40:08.437Z,10.23
2019-03-28T18:42:36.827Z,11.33
2019-03-28T18:45:06.162Z,11.28
2019-03-28T18:47:34.576Z,14.60
2019-03-28T18:50:03.936Z,13.78
2019-03-28T18:52:32.410Z,12.47
2019-03-28T18:55:00.836Z,16.02
2019-03-28T18:57:29.339Z,13.80
2019-03-28T18:59:57.770Z,13.05
2019-03-28T19:02:26.162Z,16.48
2019-03-28T19:04:54.570Z,12.68
2019-03-28T19:07:23.030Z,12.55
2019-03-28T19:09:51.396Z,14.15
2019-03-28T19:12:19.799Z,12.58
2019-03-28T19:14:48.238Z,17.07
2019-03-28T19:17:16.656Z,15.18
2019-03-28T19:19:45.049Z,15.88
2019-03-28T19:22:13.533Z,18.82
2019-03-28T19:24:42.637Z,17.60
2019-03-28T19:27:11.135Z,11.73
2019-03-28T19:29:40.465Z,14.45
2019-03-28T19:32:08.878Z,12.68
2019-03-28T19:34:37.255Z,15.68
2019-03-28T19:37:05.658Z,16.20
2019-03-28T19:39:34.274Z,13.08
2019-03-28T19:42:04.425Z,17.92
2019-03-28T19:44:32.831Z,14.58
2019-03-28T19:47:01.210Z,13.75
2019-03-28T19:49:29.584Z,16.23
2019-03-28T19:51:57.954Z,13.30
2019-03-28T19:54:27.335Z,20.88
2019-03-28T19:56:57.354Z,21.00
2019-03-28T19:59:25.994Z,14.33
2019-03-28T20:01:54.609Z,11.63
2019-03-28T20:04:23.164Z,13.08
2019-03-28T20:06:51.618Z,16.30
2019-03-28T20:09:20.058Z,12.82
2019-03-28T20:11:48.470Z,17.00
2019-03-28T20:14:16.824Z,13.90
2019-03-28T20:16:46.053Z,18.13
2019-03-28T20:19:17.659Z,15.78
2019-03-28T20:21:46.633Z,15.10
2019-03-28T20:24:15.006Z,15.78
2019-03-28T20:26:43.755Z,16.82
2019-03-28T20:29:12.123Z,13.87
2019-03-28T20:31:40.585Z,13.72
2019-03-28T20:34:08.985Z,14.95
2019-03-28T20:36:42.077Z,14.43
2019-03-28T20:39:10.022Z,12.63
2019-03-28T20:41:38.403Z,15.78
2019-03-28T20:44:06.807Z,10.58
2019-03-28T20:46:35.172Z,14.45
2019-03-28T20:49:03.550Z,13.55
2019-03-28T20:51:32.013Z,10.70
2019-03-28T20:54:00.378Z,13.32
2019-03-28T20:56:28.742Z,14.50
2019-03-28T20:58:57.350Z,13.03
2019-03-28T21:01:25.810Z,14.98
2019-03-28T21:03:54.244Z,10.93
2019-03-28T21:06:22.615Z,8.55
2019-03-28T21:08:51.057Z,13.27
2019-03-28T21:11:19.469Z,10.95
2019-03-28T21:13:47.863Z,12.00
2019-03-28T21:16:16.285Z,11.93
2019-03-28T21:18:45.222Z,11.14
2019-03-28T21:21:13.659Z,12.10
2019-03-28T21:23:42.101Z,13.62
2019-03-28T21:26:10.544Z,10.32
2019-03-28T21:28:47.159Z,11.15
2019-03-28T21:31:10.170Z,14.23
2019-03-28T21:33:38.578Z,10.78
2019-03-28T21:36:06.968Z,13.90
2019-03-28T21:38:35.344Z,18.57
2019-03-28T21:41:03.980Z,7.35
2019-03-28T21:46:09.030Z,9.93
2019-03-28T21:48:37.603Z,10.72
2019-03-28T21:51:06.050Z,5.78
2019-03-28T21:53:34.490Z,9.97
2019-03-28T21:56:02.867Z,13.55
2019-03-28T21:58:31.259Z,10.50
2019-03-28T22:00:59.615Z,10.65
2019-03-28T22:03:28.127Z,14.40
2019-03-28T22:05:57.066Z,12.53
2019-03-28T22:08:25.815Z,8.13
2019-03-28T22:10:54.200Z,10.45
2019-03-28T22:13:22.635Z,9.88
2019-03-28T22:15:51.146Z,6.35
2019-03-28T22:18:19.533Z,8.25
2019-03-28T22:20:47.965Z,11.12
2019-03-28T22:23:16.372Z,11.70
2019-03-28T22:25:44.826Z,12.18
2019-03-28T22:28:13.285Z,13.13
2019-03-28T22:30:41.742Z,15.35
2019-03-28T22:33:10.112Z,7.55
2019-03-28T22:35:38.490Z,9.90
2019-03-28T22:38:06.854Z,9.54
2019-03-28T22:40:35.238Z,4.85
2019-03-28T22:43:03.714Z,10.13
2019-03-28T22:45:32.155Z,14.57
2019-03-28T22:48:10.610Z,10.32
2019-03-28T22:50:32.262Z,8.88
2019-03-28T22:53:00.626Z,10.38
2019-03-28T22:55:29.096Z,5.08
2019-03-28T22:57:57.474Z,10.88
2019-03-28T23:00:44.947Z,16.02
2019-03-28T23:03:14.253Z,8.40
2019-03-28T23:05:42.643Z,9.63
2019-03-28T23:08:11.010Z,12.93
2019-03-28T23:10:39.443Z,7.63
2019-03-28T23:13:07.892Z,11.22
2019-03-28T23:15:37.269Z,10.60
2019-03-28T23:18:05.974Z,5.65
2019-03-28T23:20:34.416Z,10.75
2019-03-28T23:23:02.790Z,8.03
2019-03-28T23:25:50.546Z,8.40
2019-03-28T23:28:19.061Z,10.40
2019-03-28T23:30:47.631Z,8.10
2019-03-28T23:33:16.100Z,8.68
2019-03-28T23:35:44.564Z,10.53
2019-03-28T23:38:12.954Z,12.80
2019-03-28T23:40:41.372Z,9.35
2019-03-28T23:43:09.936Z,10.13
2019-03-28T23:45:38.522Z,13.45
2019-03-28T23:48:07.103Z,6.33
2019-03-28T23:50:35.502Z,7.00
2019-03-28T23:53:03.960Z,9.15
2019-03-28T23:55:32.360Z,13.00
2019-03-28T23:58:00.806Z,13.45
